EWG6DJ EDDK-LSZH
Flight info
| Callsign | EWG6DJ |
|---|---|
| Flight time | 1h 2m |
| Altitude | 31000 |
| Route | KUMIK1R KUMIK Y854 BOMBI T721 LAMGO/N0441F270 T721 RILAX |
| Aircraft | A320/M-SDE3FGHIRWY/LB1 |
Departure
| Time | 2026-05-06 12:57 |
|---|---|
| Airport | Cologne Bonn Airport (EDDK) |
Arrival
| Time | 2026-05-06 13:59 |
|---|---|
| Airport | Zürich Airport (LSZH) |
| Time | Latitude | Longitude | Altitude | Speed | Heading |
|---|---|---|---|---|---|
| 2026-05-06 12:30 | 50.87695 | 7.12389 | 235 ft | 0 kts | 288° |
| 2026-05-06 12:43 | 50.87691 | 7.12411 | 232 ft | 3 kts | 288° |
| 2026-05-06 12:43 | 50.87685 | 7.12441 | 234 ft | 3 kts | 289° |
| 2026-05-06 12:44 | 50.87674 | 7.12473 | 235 ft | 3 kts | 320° |
| 2026-05-06 12:44 | 50.87655 | 7.12487 | 232 ft | 3 kts | 3° |
| 2026-05-06 12:44 | 50.87632 | 7.12481 | 234 ft | 3 kts | 18° |
| 2026-05-06 12:44 | 50.87626 | 7.12477 | 233 ft | 0 kts | 18° |
| 2026-05-06 12:47 | 50.87634 | 7.12481 | 234 ft | 5 kts | 18° |
| 2026-05-06 12:47 | 50.87696 | 7.12514 | 233 ft | 12 kts | 18° |
| 2026-05-06 12:47 | 50.87758 | 7.12570 | 232 ft | 8 kts | 63° |
| 2026-05-06 12:48 | 50.87766 | 7.12615 | 232 ft | 5 kts | 75° |
| 2026-05-06 12:48 | 50.87756 | 7.12718 | 233 ft | 14 kts | 134° |
| 2026-05-06 12:48 | 50.87695 | 7.12806 | 232 ft | 9 kts | 138° |
| 2026-05-06 12:48 | 50.87648 | 7.12873 | 232 ft | 16 kts | 137° |
| 2026-05-06 12:49 | 50.87546 | 7.13021 | 232 ft | 19 kts | 137° |
| 2026-05-06 12:49 | 50.87463 | 7.13142 | 232 ft | 16 kts | 137° |
| 2026-05-06 12:49 | 50.87367 | 7.13281 | 232 ft | 21 kts | 137° |
| 2026-05-06 12:49 | 50.87269 | 7.13422 | 233 ft | 16 kts | 137° |
| 2026-05-06 12:50 | 50.87207 | 7.13511 | 236 ft | 11 kts | 137° |
| 2026-05-06 12:50 | 50.87116 | 7.13644 | 239 ft | 23 kts | 138° |
| 2026-05-06 12:50 | 50.87010 | 7.13796 | 243 ft | 17 kts | 137° |
| 2026-05-06 12:50 | 50.86948 | 7.13886 | 247 ft | 8 kts | 137° |
| 2026-05-06 12:51 | 50.86898 | 7.13960 | 252 ft | 12 kts | 137° |
| 2026-05-06 12:51 | 50.86829 | 7.14059 | 255 ft | 16 kts | 137° |
| 2026-05-06 12:51 | 50.86731 | 7.14143 | 256 ft | 14 kts | 153° |
| 2026-05-06 12:51 | 50.86676 | 7.14219 | 260 ft | 11 kts | 137° |
| 2026-05-06 12:52 | 50.86597 | 7.14337 | 261 ft | 21 kts | 137° |
| 2026-05-06 12:52 | 50.86493 | 7.14485 | 266 ft | 16 kts | 137° |
| 2026-05-06 12:52 | 50.86423 | 7.14586 | 271 ft | 14 kts | 137° |
| 2026-05-06 12:52 | 50.86346 | 7.14699 | 275 ft | 18 kts | 137° |
| 2026-05-06 12:53 | 50.86243 | 7.14850 | 281 ft | 23 kts | 137° |
| 2026-05-06 12:53 | 50.86124 | 7.15019 | 286 ft | 20 kts | 138° |
| 2026-05-06 12:53 | 50.86037 | 7.15145 | 293 ft | 16 kts | 137° |
| 2026-05-06 12:53 | 50.85946 | 7.15279 | 297 ft | 19 kts | 137° |
| 2026-05-06 12:54 | 50.85844 | 7.15425 | 300 ft | 17 kts | 138° |
| 2026-05-06 12:54 | 50.85775 | 7.15523 | 300 ft | 10 kts | 138° |
| 2026-05-06 12:54 | 50.85728 | 7.15591 | 303 ft | 15 kts | 137° |
| 2026-05-06 12:54 | 50.85622 | 7.15746 | 304 ft | 20 kts | 137° |
| 2026-05-06 12:55 | 50.85540 | 7.15866 | 306 ft | 12 kts | 136° |
| 2026-05-06 12:55 | 50.85489 | 7.15949 | 310 ft | 12 kts | 121° |
| 2026-05-06 12:55 | 50.85530 | 7.16081 | 309 ft | 17 kts | 47° |
| 2026-05-06 12:55 | 50.85620 | 7.16235 | 308 ft | 19 kts | 47° |
| 2026-05-06 12:56 | 50.85716 | 7.16286 | 310 ft | 14 kts | 321° |
| 2026-05-06 12:56 | 50.85739 | 7.16253 | 307 ft | 7 kts | 317° |
| 2026-05-06 12:56 | 50.85927 | 7.15979 | 301 ft | 72 kts | 318° |
| 2026-05-06 12:56 | 50.86449 | 7.15223 | 282 ft | 129 kts | 317° |
| 2026-05-06 12:57 | 50.87222 | 7.14117 | 398 ft | 161 kts | 319° |
| 2026-05-06 12:57 | 50.88043 | 7.12933 | 1228 ft | 160 kts | 316° |
| 2026-05-06 12:57 | 50.88877 | 7.11737 | 1958 ft | 167 kts | 323° |
| 2026-05-06 12:57 | 50.90049 | 7.11238 | 2326 ft | 193 kts | 9° |
| 2026-05-06 12:58 | 50.91358 | 7.12090 | 2877 ft | 212 kts | 24° |
| 2026-05-06 12:58 | 50.92689 | 7.13136 | 3792 ft | 217 kts | 30° |
| 2026-05-06 12:58 | 50.93804 | 7.14807 | 4538 ft | 232 kts | 57° |
| 2026-05-06 12:58 | 50.94315 | 7.17337 | 5004 ft | 256 kts | 90° |
| 2026-05-06 12:59 | 50.94069 | 7.20241 | 5632 ft | 272 kts | 101° |
| 2026-05-06 12:59 | 50.93713 | 7.23235 | 6470 ft | 278 kts | 102° |
| 2026-05-06 12:59 | 50.93347 | 7.26263 | 7302 ft | 283 kts | 103° |
| 2026-05-06 12:59 | 50.92977 | 7.29346 | 8144 ft | 287 kts | 103° |
| 2026-05-06 13:00 | 50.92603 | 7.32477 | 8968 ft | 291 kts | 103° |
| 2026-05-06 13:00 | 50.92230 | 7.35651 | 9785 ft | 296 kts | 103° |
| 2026-05-06 13:00 | 50.91847 | 7.38925 | 10255 ft | 313 kts | 103° |
| 2026-05-06 13:00 | 50.91432 | 7.42451 | 10499 ft | 337 kts | 103° |
| 2026-05-06 13:01 | 50.90986 | 7.46229 | 10753 ft | 359 kts | 103° |
| 2026-05-06 13:01 | 50.90521 | 7.50179 | 11297 ft | 369 kts | 103° |
| 2026-05-06 13:01 | 50.90048 | 7.54208 | 11978 ft | 374 kts | 102° |
| 2026-05-06 13:01 | 50.89570 | 7.58285 | 12693 ft | 379 kts | 102° |
| 2026-05-06 13:02 | 50.89086 | 7.62410 | 13390 ft | 383 kts | 102° |
| 2026-05-06 13:02 | 50.88593 | 7.66574 | 14019 ft | 387 kts | 102° |
| 2026-05-06 13:02 | 50.88090 | 7.70783 | 14629 ft | 391 kts | 102° |
| 2026-05-06 13:02 | 50.87580 | 7.75035 | 15237 ft | 395 kts | 103° |
| 2026-05-06 13:03 | 50.87064 | 7.79321 | 15835 ft | 398 kts | 103° |
| 2026-05-06 13:03 | 50.86541 | 7.83660 | 16433 ft | 402 kts | 103° |
| 2026-05-06 13:03 | 50.86013 | 7.88026 | 17017 ft | 406 kts | 103° |
| 2026-05-06 13:03 | 50.85481 | 7.92428 | 17577 ft | 409 kts | 103° |
| 2026-05-06 13:04 | 50.84947 | 7.96808 | 18122 ft | 413 kts | 103° |
| 2026-05-06 13:04 | 50.84175 | 8.01175 | 18618 ft | 412 kts | 114° |
| 2026-05-06 13:04 | 50.82906 | 8.05231 | 19126 ft | 411 kts | 125° |
| 2026-05-06 13:04 | 50.81191 | 8.08831 | 19628 ft | 410 kts | 135° |
| 2026-05-06 13:05 | 50.79094 | 8.11860 | 20144 ft | 408 kts | 146° |
| 2026-05-06 13:05 | 50.76724 | 8.14336 | 20617 ft | 409 kts | 150° |
| 2026-05-06 13:05 | 50.74313 | 8.16751 | 21101 ft | 412 kts | 150° |
| 2026-05-06 13:05 | 50.71886 | 8.19187 | 21575 ft | 415 kts | 150° |
| 2026-05-06 13:06 | 50.69445 | 8.21640 | 22033 ft | 418 kts | 150° |
| 2026-05-06 13:06 | 50.66998 | 8.24101 | 22489 ft | 421 kts | 151° |
| 2026-05-06 13:06 | 50.64514 | 8.26598 | 22924 ft | 423 kts | 151° |
| 2026-05-06 13:06 | 50.62019 | 8.29105 | 23349 ft | 426 kts | 151° |
| 2026-05-06 13:07 | 50.59508 | 8.31619 | 23707 ft | 429 kts | 152° |
| 2026-05-06 13:07 | 50.56981 | 8.34145 | 24088 ft | 431 kts | 152° |
| 2026-05-06 13:07 | 50.54441 | 8.36683 | 24464 ft | 433 kts | 152° |
| 2026-05-06 13:07 | 50.51894 | 8.39222 | 24847 ft | 435 kts | 152° |
| 2026-05-06 13:08 | 50.49332 | 8.41768 | 25213 ft | 437 kts | 152° |
| 2026-05-06 13:08 | 50.46759 | 8.44325 | 25569 ft | 438 kts | 151° |
| 2026-05-06 13:08 | 50.44180 | 8.46891 | 25916 ft | 440 kts | 151° |
| 2026-05-06 13:08 | 50.41585 | 8.49464 | 26255 ft | 442 kts | 151° |
| 2026-05-06 13:09 | 50.38981 | 8.52037 | 26600 ft | 443 kts | 151° |
| 2026-05-06 13:09 | 50.36345 | 8.54564 | 26949 ft | 444 kts | 153° |
| 2026-05-06 13:09 | 50.33660 | 8.56943 | 27280 ft | 444 kts | 155° |
| 2026-05-06 13:09 | 50.30933 | 8.59210 | 27627 ft | 445 kts | 156° |
| 2026-05-06 13:10 | 50.28171 | 8.61433 | 27959 ft | 446 kts | 156° |
| 2026-05-06 13:10 | 50.25407 | 8.63644 | 28295 ft | 447 kts | 156° |
| 2026-05-06 13:10 | 50.22654 | 8.65877 | 28757 ft | 445 kts | 156° |
| 2026-05-06 13:10 | 50.19920 | 8.68128 | 29273 ft | 442 kts | 155° |
| 2026-05-06 13:11 | 50.17215 | 8.70381 | 29796 ft | 439 kts | 155° |
| 2026-05-06 13:11 | 50.14531 | 8.72628 | 30227 ft | 437 kts | 155° |
| 2026-05-06 13:11 | 50.11858 | 8.74863 | 30607 ft | 436 kts | 155° |
| 2026-05-06 13:11 | 50.09184 | 8.77091 | 30751 ft | 435 kts | 156° |
| 2026-05-06 13:12 | 50.06388 | 8.78764 | 30783 ft | 428 kts | 170° |
| 2026-05-06 13:12 | 50.03452 | 8.79219 | 30780 ft | 423 kts | 184° |
| 2026-05-06 13:12 | 50.00517 | 8.78863 | 30781 ft | 423 kts | 186° |
| 2026-05-06 13:13 | 49.94651 | 8.78050 | 30778 ft | 423 kts | 186° |
| 2026-05-06 13:13 | 49.88787 | 8.77223 | 30781 ft | 424 kts | 186° |
| 2026-05-06 13:14 | 49.82904 | 8.76387 | 30779 ft | 425 kts | 186° |
| 2026-05-06 13:14 | 49.77013 | 8.75582 | 30774 ft | 425 kts | 186° |
| 2026-05-06 13:15 | 49.71121 | 8.74779 | 30773 ft | 425 kts | 186° |
| 2026-05-06 13:15 | 49.65230 | 8.73969 | 30767 ft | 426 kts | 186° |
| 2026-05-06 13:16 | 49.59320 | 8.73158 | 30759 ft | 426 kts | 186° |
| 2026-05-06 13:16 | 49.53413 | 8.72353 | 30762 ft | 427 kts | 186° |
| 2026-05-06 13:17 | 49.47498 | 8.71548 | 30760 ft | 427 kts | 186° |
| 2026-05-06 13:17 | 49.41574 | 8.70741 | 30761 ft | 428 kts | 186° |
| 2026-05-06 13:18 | 49.35677 | 8.69952 | 30760 ft | 428 kts | 186° |
| 2026-05-06 13:18 | 49.29738 | 8.69150 | 30767 ft | 428 kts | 186° |
| 2026-05-06 13:19 | 49.23797 | 8.68347 | 30774 ft | 429 kts | 186° |
| 2026-05-06 13:19 | 49.17864 | 8.67550 | 30778 ft | 428 kts | 186° |
| 2026-05-06 13:20 | 49.11921 | 8.66751 | 30783 ft | 428 kts | 186° |
| 2026-05-06 13:20 | 49.05978 | 8.65951 | 30788 ft | 428 kts | 186° |
| 2026-05-06 13:21 | 49.00045 | 8.65165 | 30797 ft | 428 kts | 186° |
| 2026-05-06 13:21 | 48.94107 | 8.64376 | 30813 ft | 428 kts | 186° |
| 2026-05-06 13:22 | 48.88174 | 8.63642 | 30818 ft | 427 kts | 186° |
| 2026-05-06 13:22 | 48.82264 | 8.62862 | 30824 ft | 425 kts | 186° |
| 2026-05-06 13:23 | 48.76379 | 8.62049 | 30829 ft | 424 kts | 187° |
| 2026-05-06 13:23 | 48.70504 | 8.61649 | 30831 ft | 425 kts | 174° |
| 2026-05-06 13:24 | 48.64740 | 8.63745 | 30829 ft | 426 kts | 168° |
| 2026-05-06 13:24 | 48.59020 | 8.66002 | 30832 ft | 425 kts | 168° |
| 2026-05-06 13:25 | 48.53320 | 8.68255 | 30829 ft | 423 kts | 168° |
| 2026-05-06 13:25 | 48.47630 | 8.70487 | 30636 ft | 421 kts | 168° |
| 2026-05-06 13:25 | 48.44795 | 8.71596 | 29742 ft | 423 kts | 168° |
| 2026-05-06 13:26 | 48.41930 | 8.72712 | 28619 ft | 427 kts | 168° |
| 2026-05-06 13:26 | 48.39048 | 8.73830 | 27571 ft | 428 kts | 168° |
| 2026-05-06 13:26 | 48.36153 | 8.74953 | 26472 ft | 431 kts | 167° |
| 2026-05-06 13:26 | 48.33229 | 8.76090 | 25367 ft | 436 kts | 167° |
| 2026-05-06 13:27 | 48.30314 | 8.77227 | 24683 ft | 430 kts | 167° |
| 2026-05-06 13:27 | 48.27426 | 8.78355 | 23926 ft | 428 kts | 167° |
| 2026-05-06 13:27 | 48.24552 | 8.79473 | 23142 ft | 427 kts | 166° |
| 2026-05-06 13:27 | 48.21683 | 8.80584 | 22378 ft | 423 kts | 166° |
| 2026-05-06 13:28 | 48.18843 | 8.81681 | 21678 ft | 419 kts | 167° |
| 2026-05-06 13:28 | 48.16029 | 8.82769 | 21004 ft | 416 kts | 167° |
| 2026-05-06 13:28 | 48.13240 | 8.83845 | 20348 ft | 413 kts | 167° |
| 2026-05-06 13:28 | 48.10471 | 8.84910 | 19696 ft | 409 kts | 167° |
| 2026-05-06 13:29 | 48.07762 | 8.85950 | 19081 ft | 406 kts | 167° |
| 2026-05-06 13:29 | 48.05039 | 8.86998 | 18468 ft | 403 kts | 167° |
| 2026-05-06 13:29 | 48.02334 | 8.88041 | 17830 ft | 400 kts | 167° |
| 2026-05-06 13:29 | 47.99663 | 8.89069 | 17259 ft | 393 kts | 167° |
| 2026-05-06 13:30 | 47.97033 | 8.90081 | 16711 ft | 387 kts | 167° |
| 2026-05-06 13:30 | 47.94452 | 8.91076 | 16202 ft | 380 kts | 167° |
| 2026-05-06 13:30 | 47.91909 | 8.92056 | 15693 ft | 375 kts | 167° |
| 2026-05-06 13:30 | 47.89397 | 8.93018 | 15198 ft | 370 kts | 167° |
| 2026-05-06 13:31 | 47.86915 | 8.93962 | 14703 ft | 366 kts | 167° |
| 2026-05-06 13:31 | 47.84454 | 8.94896 | 14207 ft | 364 kts | 167° |
| 2026-05-06 13:31 | 47.82008 | 8.95824 | 13686 ft | 362 kts | 167° |
| 2026-05-06 13:31 | 47.79931 | 8.96615 | 13197 ft | 361 kts | 167° |
| 2026-05-06 13:32 | 47.77513 | 8.97533 | 12659 ft | 358 kts | 167° |
| 2026-05-06 13:32 | 47.75105 | 8.98445 | 12100 ft | 356 kts | 167° |
| 2026-05-06 13:32 | 47.73514 | 8.99047 | 11717 ft | 356 kts | 167° |
| 2026-05-06 13:32 | 47.71116 | 8.99953 | 11119 ft | 355 kts | 168° |
| 2026-05-06 13:33 | 47.68712 | 9.00864 | 10835 ft | 345 kts | 168° |
| 2026-05-06 13:33 | 47.66465 | 9.01724 | 10692 ft | 321 kts | 168° |
| 2026-05-06 13:33 | 47.64394 | 9.02522 | 10558 ft | 296 kts | 169° |
| 2026-05-06 13:33 | 47.62468 | 9.03257 | 10170 ft | 285 kts | 169° |
| 2026-05-06 13:34 | 47.60562 | 9.03974 | 9932 ft | 284 kts | 170° |
| 2026-05-06 13:34 | 47.58644 | 9.04689 | 9731 ft | 283 kts | 171° |
| 2026-05-06 13:34 | 47.56734 | 9.05404 | 9609 ft | 282 kts | 170° |
| 2026-05-06 13:34 | 47.54832 | 9.06105 | 9464 ft | 280 kts | 173° |
| 2026-05-06 13:35 | 47.52961 | 9.06361 | 9330 ft | 259 kts | 186° |
| 2026-05-06 13:35 | 47.51242 | 9.06124 | 9196 ft | 238 kts | 191° |
| 2026-05-06 13:35 | 47.49633 | 9.05860 | 9063 ft | 223 kts | 191° |
| 2026-05-06 13:35 | 47.48108 | 9.05607 | 8938 ft | 226 kts | 191° |
| 2026-05-06 13:36 | 47.46536 | 9.05339 | 8777 ft | 228 kts | 193° |
| 2026-05-06 13:36 | 47.45004 | 9.04609 | 8262 ft | 228 kts | 213° |
| 2026-05-06 13:36 | 47.43796 | 9.03179 | 8051 ft | 221 kts | 231° |
| 2026-05-06 13:36 | 47.42990 | 9.01278 | 7839 ft | 217 kts | 249° |
| 2026-05-06 13:37 | 47.42647 | 8.99134 | 7583 ft | 217 kts | 266° |
| 2026-05-06 13:37 | 47.42740 | 8.96888 | 7267 ft | 222 kts | 274° |
| 2026-05-06 13:37 | 47.42911 | 8.94647 | 6979 ft | 224 kts | 275° |
| 2026-05-06 13:37 | 47.43085 | 8.92353 | 6657 ft | 226 kts | 274° |
| 2026-05-06 13:38 | 47.43260 | 8.90004 | 6330 ft | 228 kts | 275° |
| 2026-05-06 13:38 | 47.43429 | 8.87723 | 6003 ft | 224 kts | 274° |
| 2026-05-06 13:38 | 47.43597 | 8.85462 | 5665 ft | 219 kts | 274° |
| 2026-05-06 13:38 | 47.43760 | 8.83254 | 5340 ft | 213 kts | 274° |
| 2026-05-06 13:39 | 47.43919 | 8.81093 | 5028 ft | 205 kts | 274° |
| 2026-05-06 13:39 | 47.44071 | 8.79028 | 4736 ft | 200 kts | 274° |
| 2026-05-06 13:39 | 47.44216 | 8.77044 | 4470 ft | 187 kts | 274° |
| 2026-05-06 13:39 | 47.44349 | 8.75231 | 4179 ft | 166 kts | 274° |
| 2026-05-06 13:40 | 47.44465 | 8.73646 | 3966 ft | 149 kts | 274° |
| 2026-05-06 13:40 | 47.44572 | 8.72164 | 3733 ft | 141 kts | 273° |
| 2026-05-06 13:40 | 47.44675 | 8.70735 | 3532 ft | 139 kts | 273° |
| 2026-05-06 13:40 | 47.44777 | 8.69333 | 3319 ft | 137 kts | 272° |
| 2026-05-06 13:41 | 47.44877 | 8.67936 | 3118 ft | 137 kts | 272° |
| 2026-05-06 13:41 | 47.44978 | 8.66538 | 2919 ft | 138 kts | 274° |
| 2026-05-06 13:41 | 47.45079 | 8.65136 | 2708 ft | 135 kts | 274° |
| 2026-05-06 13:41 | 47.45179 | 8.63748 | 2501 ft | 136 kts | 272° |
| 2026-05-06 13:42 | 47.45280 | 8.62349 | 2271 ft | 138 kts | 276° |
| 2026-05-06 13:42 | 47.45382 | 8.60939 | 2061 ft | 138 kts | 276° |
| 2026-05-06 13:42 | 47.45476 | 8.59552 | 1904 ft | 135 kts | 274° |
| 2026-05-06 13:42 | 47.45576 | 8.58175 | 1687 ft | 136 kts | 274° |
| 2026-05-06 13:43 | 47.45680 | 8.56795 | 1453 ft | 134 kts | 274° |
| 2026-05-06 13:43 | 47.45787 | 8.55547 | 1409 ft | 112 kts | 272° |
| 2026-05-06 13:43 | 47.45841 | 8.54293 | 1883 ft | 130 kts | 270° |
| 2026-05-06 13:43 | 47.45856 | 8.52881 | 2673 ft | 142 kts | 269° |
| 2026-05-06 13:44 | 47.45878 | 8.51330 | 3192 ft | 161 kts | 269° |
| 2026-05-06 13:44 | 47.45592 | 8.49657 | 3489 ft | 181 kts | 237° |
| 2026-05-06 13:44 | 47.44526 | 8.48483 | 3755 ft | 206 kts | 204° |
| 2026-05-06 13:44 | 47.43112 | 8.47873 | 4025 ft | 215 kts | 198° |
| 2026-05-06 13:45 | 47.41655 | 8.47355 | 4057 ft | 215 kts | 196° |
| 2026-05-06 13:45 | 47.38512 | 8.46337 | 4059 ft | 254 kts | 185° |
| 2026-05-06 13:45 | 47.36762 | 8.46858 | 4053 ft | 265 kts | 156° |
| 2026-05-06 13:46 | 47.35345 | 8.48613 | 4061 ft | 272 kts | 127° |
| 2026-05-06 13:46 | 47.34638 | 8.51166 | 4052 ft | 276 kts | 102° |
| 2026-05-06 13:46 | 47.34389 | 8.54002 | 4060 ft | 280 kts | 97° |
| 2026-05-06 13:46 | 47.34197 | 8.56859 | 4061 ft | 279 kts | 97° |
| 2026-05-06 13:47 | 47.34013 | 8.59708 | 4056 ft | 279 kts | 97° |
| 2026-05-06 13:47 | 47.33834 | 8.62560 | 4059 ft | 280 kts | 97° |
| 2026-05-06 13:47 | 47.33666 | 8.65432 | 4058 ft | 282 kts | 96° |
| 2026-05-06 13:47 | 47.33584 | 8.68292 | 4061 ft | 276 kts | 87° |
| 2026-05-06 13:48 | 47.33757 | 8.70967 | 4053 ft | 250 kts | 84° |
| 2026-05-06 13:48 | 47.33955 | 8.73454 | 4060 ft | 241 kts | 84° |
| 2026-05-06 13:48 | 47.34158 | 8.75893 | 4058 ft | 240 kts | 84° |
| 2026-05-06 13:48 | 47.34364 | 8.78330 | 4056 ft | 239 kts | 83° |
| 2026-05-06 13:49 | 47.34567 | 8.80766 | 4058 ft | 239 kts | 84° |
| 2026-05-06 13:49 | 47.34768 | 8.83201 | 4057 ft | 240 kts | 84° |
| 2026-05-06 13:49 | 47.34981 | 8.85643 | 4044 ft | 242 kts | 83° |
| 2026-05-06 13:49 | 47.35187 | 8.88093 | 4038 ft | 235 kts | 84° |
| 2026-05-06 13:50 | 47.35461 | 8.90428 | 4037 ft | 231 kts | 69° |
| 2026-05-06 13:50 | 47.36126 | 8.92573 | 4111 ft | 227 kts | 61° |
| 2026-05-06 13:50 | 47.36870 | 8.94620 | 4324 ft | 227 kts | 57° |
| 2026-05-06 13:50 | 47.37613 | 8.96653 | 4654 ft | 229 kts | 60° |
| 2026-05-06 13:51 | 47.38472 | 8.98602 | 4805 ft | 218 kts | 39° |
| 2026-05-06 13:51 | 47.39755 | 8.99624 | 4986 ft | 206 kts | 5° |
| 2026-05-06 13:51 | 47.41126 | 8.99509 | 5027 ft | 193 kts | 332° |
| 2026-05-06 13:51 | 47.42173 | 8.98489 | 5042 ft | 170 kts | 304° |
| 2026-05-06 13:52 | 47.42710 | 8.97038 | 5041 ft | 156 kts | 279° |
| 2026-05-06 13:52 | 47.42849 | 8.95469 | 5052 ft | 154 kts | 275° |
| 2026-05-06 13:52 | 47.42968 | 8.93891 | 5039 ft | 154 kts | 274° |
| 2026-05-06 13:52 | 47.43086 | 8.92322 | 5037 ft | 154 kts | 275° |
| 2026-05-06 13:53 | 47.43205 | 8.90732 | 5049 ft | 156 kts | 274° |
| 2026-05-06 13:53 | 47.43322 | 8.89158 | 5048 ft | 153 kts | 274° |
| 2026-05-06 13:53 | 47.43437 | 8.87607 | 5051 ft | 152 kts | 274° |
| 2026-05-06 13:53 | 47.43552 | 8.86053 | 5050 ft | 152 kts | 274° |
| 2026-05-06 13:54 | 47.43667 | 8.84501 | 5054 ft | 152 kts | 273° |
| 2026-05-06 13:54 | 47.43781 | 8.82947 | 5055 ft | 152 kts | 273° |
| 2026-05-06 13:54 | 47.43894 | 8.81416 | 4976 ft | 151 kts | 273° |
| 2026-05-06 13:54 | 47.44008 | 8.79868 | 4814 ft | 151 kts | 272° |
| 2026-05-06 13:55 | 47.44121 | 8.78326 | 4628 ft | 149 kts | 272° |
| 2026-05-06 13:55 | 47.44229 | 8.76856 | 4415 ft | 142 kts | 273° |
| 2026-05-06 13:55 | 47.44333 | 8.75438 | 4204 ft | 138 kts | 273° |
| 2026-05-06 13:55 | 47.44437 | 8.74005 | 3996 ft | 140 kts | 274° |
| 2026-05-06 13:56 | 47.44540 | 8.72589 | 3800 ft | 137 kts | 273° |
| 2026-05-06 13:56 | 47.44641 | 8.71199 | 3601 ft | 136 kts | 273° |
| 2026-05-06 13:56 | 47.44742 | 8.69807 | 3380 ft | 136 kts | 273° |
| 2026-05-06 13:56 | 47.44842 | 8.68423 | 3192 ft | 136 kts | 273° |
| 2026-05-06 13:57 | 47.44943 | 8.67029 | 2982 ft | 136 kts | 274° |
| 2026-05-06 13:57 | 47.45043 | 8.65643 | 2796 ft | 135 kts | 274° |
| 2026-05-06 13:57 | 47.45142 | 8.64272 | 2581 ft | 135 kts | 272° |
| 2026-05-06 13:57 | 47.45242 | 8.62877 | 2373 ft | 136 kts | 276° |
| 2026-05-06 13:58 | 47.45342 | 8.61490 | 2152 ft | 136 kts | 276° |
| 2026-05-06 13:58 | 47.45442 | 8.60100 | 1944 ft | 136 kts | 272° |
| 2026-05-06 13:58 | 47.45531 | 8.58724 | 1736 ft | 133 kts | 275° |
| 2026-05-06 13:58 | 47.45636 | 8.57362 | 1520 ft | 133 kts | 274° |
| 2026-05-06 13:59 | 47.45729 | 8.56041 | 1412 ft | 116 kts | 277° |
| 2026-05-06 13:59 | 47.45798 | 8.55108 | 1396 ft | 51 kts | 276° |
| 2026-05-06 13:59 | 47.45769 | 8.54863 | 1390 ft | 15 kts | 194° |
| 2026-05-06 13:59 | 47.45673 | 8.54901 | 1400 ft | 14 kts | 156° |
| 2026-05-06 14:00 | 47.45573 | 8.54968 | 1401 ft | 18 kts | 154° |
| 2026-05-06 14:00 | 47.45471 | 8.55060 | 1398 ft | 17 kts | 134° |
| 2026-05-06 14:00 | 47.45412 | 8.55196 | 1406 ft | 14 kts | 119° |
| 2026-05-06 14:00 | 47.45375 | 8.55308 | 1400 ft | 10 kts | 96° |
| 2026-05-06 14:01 | 47.45430 | 8.55386 | 1407 ft | 16 kts | 27° |
| 2026-05-06 14:01 | 47.45518 | 8.55452 | 1409 ft | 12 kts | 32° |
| 2026-05-06 14:01 | 47.45521 | 8.55562 | 1406 ft | 16 kts | 97° |
| 2026-05-06 14:01 | 47.45510 | 8.55728 | 1407 ft | 15 kts | 95° |
| 2026-05-06 14:02 | 47.45499 | 8.55868 | 1411 ft | 12 kts | 112° |
| 2026-05-06 14:02 | 47.45442 | 8.55876 | 1407 ft | 7 kts | 187° |
| 2026-05-06 14:02 | 47.45422 | 8.55873 | 1409 ft | 2 kts | 186° |
| 2026-05-06 14:02 | 47.45416 | 8.55872 | 1407 ft | 0 kts | 186° |